Time,TemperatureF,DewpointF,PressureIn,WindDirection,WindDirectionDegrees,WindSpeedMPH,WindSpeedGustMPH,Humidity,HourlyPrecipIn,Conditions,Clouds,dailyrainin,SoftwareType,DateUTC
2013-08-23 00:00:00,62.7,51.2,29.75,ENE,58,0.0,0.0,66,0.00,,,0.00,Wunderground v.1.15,2013-08-23 07:00:00,
2013-08-23 00:05:00,63.5,50.2,29.75,NNE,32,0.0,1.0,62,0.00,,,0.00,Wunderground v.1.15,2013-08-23 07:05:00,
2013-08-23 00:10:00,64.8,51.0,29.75,SSE,165,0.0,1.0,61,0.00,,,0.00,Wunderground v.1.15,2013-08-23 07:10:00,
2013-08-23 00:15:00,65.4,51.1,29.76,SSE,162,0.0,1.0,60,0.00,,,0.00,Wunderground v.1.15,2013-08-23 07:15:00,
2013-08-23 00:20:00,65.8,49.7,29.75,WNW,285,0.0,1.0,56,0.00,,,0.00,Wunderground v.1.15,2013-08-23 07:20:00,
2013-08-23 00:25:00,66.7,51.0,29.76,NNE,33,1.0,2.0,57,0.00,,,0.00,Wunderground v.1.15,2013-08-23 07:25:00,
2013-08-23 00:30:00,67.8,51.5,29.76,ESE,119,1.0,1.0,56,0.00,,,0.00,Wunderground v.1.15,2013-08-23 07:30:00,
2013-08-23 00:35:00,67.1,50.9,29.76,SSW,210,0.0,1.0,56,0.00,,,0.00,Wunderground v.1.15,2013-08-23 07:35:00,
2013-08-23 00:40:00,66.7,50.5,29.76,SSW,210,0.0,0.0,56,0.00,,,0.00,Wunderground v.1.15,2013-08-23 07:40:00,
2013-08-23 00:45:00,66.0,50.3,29.76,ESE,104,0.0,0.0,57,0.00,,,0.00,Wunderground v.1.15,2013-08-23 07:45:00,
2013-08-23 00:50:00,65.6,50.9,29.76,ESE,104,0.0,0.0,59,0.00,,,0.00,Wunderground v.1.15,2013-08-23 07:50:00,
2013-08-23 00:55:00,65.4,51.6,29.76,ESE,103,0.0,0.0,61,0.00,,,0.00,Wunderground v.1.15,2013-08-23 07:55:00,
2013-08-23 01:00:00,65.2,51.0,29.76,NE,40,0.0,1.0,60,0.00,,,0.00,Wunderground v.1.15,2013-08-23 08:00:00,
2013-08-23 01:05:00,65.2,50.5,29.76,NNE,13,0.0,1.0,59,0.00,,,0.00,Wunderground v.1.15,2013-08-23 08:05:00,
2013-08-23 01:10:00,65.0,50.8,29.76,NNE,13,0.0,0.0,60,0.00,,,0.00,Wunderground v.1.15,2013-08-23 08:10:00,
2013-08-23 01:15:00,64.7,50.9,29.76,NNE,13,0.0,0.0,61,0.00,,,0.00,Wunderground v.1.15,2013-08-23 08:15:00,
2013-08-23 01:20:00,64.6,50.8,29.76,WSW,245,0.0,0.0,61,0.00,,,0.00,Wunderground v.1.15,2013-08-23 08:20:00,
2013-08-23 01:25:00,64.5,52.5,29.76,WSW,245,0.0,0.0,65,0.00,,,0.00,Wunderground v.1.15,2013-08-23 08:25:00,
2013-08-23 01:30:00,64.3,52.3,29.77,WSW,245,0.0,0.0,65,0.00,,,0.00,Wunderground v.1.15,2013-08-23 08:30:00,
2013-08-23 01:35:00,64.1,52.1,29.77,WSW,244,0.0,0.0,65,0.00,,,0.00,Wunderground v.1.15,2013-08-23 08:35:00,
2013-08-23 01:40:00,63.8,52.2,29.77,WSW,244,0.0,0.0,66,0.00,,,0.00,Wunderground v.1.15,2013-08-23 08:40:00,
2013-08-23 01:45:00,63.5,52.3,29.77,WSW,244,0.0,0.0,67,0.00,,,0.00,Wunderground v.1.15,2013-08-23 08:45:00,
2013-08-23 01:50:00,63.3,53.3,29.77,WSW,245,0.0,0.0,70,0.00,,,0.00,Wunderground v.1.15,2013-08-23 08:50:00,
2013-08-23 01:55:00,63.0,52.7,29.77,North,356,0.0,1.0,69,0.00,,,0.00,Wunderground v.1.15,2013-08-23 08:55:00,
2013-08-23 02:00:00,62.8,53.3,29.77,ENE,77,0.0,1.0,71,0.00,,,0.00,Wunderground v.1.15,2013-08-23 09:00:00,
2013-08-23 02:05:00,62.7,52.8,29.77,SSW,208,0.0,1.0,70,0.00,,,0.00,Wunderground v.1.15,2013-08-23 09:05:00,
2013-08-23 02:10:00,63.1,52.8,29.77,SSW,210,0.0,0.0,69,0.00,,,0.00,Wunderground v.1.15,2013-08-23 09:10:00,
2013-08-23 02:20:00,63.6,53.2,29.76,ESE,117,0.0,0.0,69,0.00,,,0.00,Wunderground v.1.15,2013-08-23 09:20:00,
2013-08-23 02:25:00,63.6,53.2,29.76,ESE,117,0.0,0.0,69,0.00,,,0.00,Wunderground v.1.15,2013-08-23 09:25:00,
2013-08-23 02:30:00,63.5,54.7,29.76,ESE,117,0.0,0.0,73,0.00,,,0.00,Wunderground v.1.15,2013-08-23 09:30:00,
2013-08-23 02:35:00,63.3,54.5,29.76,ESE,117,0.0,0.0,73,0.00,,,0.00,Wunderground v.1.15,2013-08-23 09:35:00,
2013-08-23 02:40:00,63.3,54.9,29.76,SSW,210,0.0,1.0,74,0.00,,,0.00,Wunderground v.1.15,2013-08-23 09:40:00,
2013-08-23 02:45:00,63.0,54.6,29.76,SSW,205,0.0,1.0,74,0.00,,,0.00,Wunderground v.1.15,2013-08-23 09:45:00,
2013-08-23 02:50:00,62.6,53.8,29.76,SSW,205,0.0,0.0,73,0.00,,,0.00,Wunderground v.1.15,2013-08-23 09:50:00,
2013-08-23 02:55:00,62.5,54.1,29.76,SSW,210,0.0,0.0,74,0.00,,,0.00,Wunderground v.1.15,2013-08-23 09:55:00,
2013-08-23 03:00:00,62.4,54.7,29.76,SSW,210,0.0,0.0,76,0.00,,,0.00,Wunderground v.1.15,2013-08-23 10:00:00,
2013-08-23 03:05:00,62.1,53.3,29.76,ESE,122,0.0,0.0,73,0.00,,,0.00,Wunderground v.1.15,2013-08-23 10:05:00,
2013-08-23 03:10:00,62.2,53.8,29.76,ESE,122,0.0,0.0,74,0.00,,,0.00,Wunderground v.1.15,2013-08-23 10:10:00,
2013-08-23 03:15:00,62.1,54.1,29.76,SE,127,0.0,0.0,75,0.00,,,0.00,Wunderground v.1.15,2013-08-23 10:15:00,
2013-08-23 03:20:00,62.1,54.1,29.76,SE,127,0.0,0.0,75,0.00,,,0.00,Wunderground v.1.15,2013-08-23 10:20:00,
2013-08-23 03:25:00,61.9,53.5,29.75,SE,127,0.0,0.0,74,0.00,,,0.00,Wunderground v.1.15,2013-08-23 10:25:00,
2013-08-23 03:30:00,61.9,53.9,29.76,SSW,207,0.0,0.0,75,0.00,,,0.00,Wunderground v.1.15,2013-08-23 10:30:00,
2013-08-23 03:35:00,62.2,54.2,29.76,SW,222,1.0,1.0,75,0.00,,,0.00,Wunderground v.1.15,2013-08-23 10:35:00,
2013-08-23 03:40:00,62.2,53.4,29.75,NE,43,1.0,1.0,73,0.00,,,0.00,Wunderground v.1.15,2013-08-23 10:40:00,
2013-08-23 03:45:00,62.6,52.7,29.75,SSW,195,0.0,1.0,70,0.00,,,0.00,Wunderground v.1.15,2013-08-23 10:45:00,
2013-08-23 03:50:00,63.3,53.3,29.75,SW,233,1.0,1.0,70,0.00,,,0.00,Wunderground v.1.15,2013-08-23 10:50:00,
2013-08-23 03:55:00,63.0,53.8,29.75,SW,233,1.0,1.0,72,0.00,,,0.00,Wunderground v.1.15,2013-08-23 10:55:00,
2013-08-23 04:00:00,62.6,54.2,29.75,SW,233,0.0,0.0,74,0.00,,,0.00,Wunderground v.1.15,2013-08-23 11:00:00,
2013-08-23 04:05:00,62.3,54.3,29.75,SW,233,0.0,0.0,75,0.00,,,0.00,Wunderground v.1.15,2013-08-23 11:05:00,
2013-08-23 04:10:00,62.1,53.3,29.74,SW,233,0.0,0.0,73,0.00,,,0.00,Wunderground v.1.15,2013-08-23 11:10:00,
2013-08-23 04:15:00,62.1,53.7,29.74,SW,233,0.0,0.0,74,0.00,,,0.00,Wunderground v.1.15,2013-08-23 11:15:00,
2013-08-23 04:20:00,61.8,53.8,29.74,SW,233,0.0,0.0,75,0.00,,,0.00,Wunderground v.1.15,2013-08-23 11:20:00,
2013-08-23 04:25:00,61.4,53.8,29.74,SW,233,0.0,0.0,76,0.00,,,0.00,Wunderground v.1.15,2013-08-23 11:25:00,
2013-08-23 04:30:00,61.1,53.8,29.74,SW,233,0.0,0.0,77,0.00,,,0.00,Wunderground v.1.15,2013-08-23 11:30:00,
2013-08-23 04:35:00,60.8,53.9,29.74,SW,233,0.0,0.0,78,0.00,,,0.00,Wunderground v.1.15,2013-08-23 11:35:00,
2013-08-23 04:40:00,60.5,53.6,29.74,SW,233,0.0,0.0,78,0.00,,,0.00,Wunderground v.1.15,2013-08-23 11:40:00,
2013-08-23 04:45:00,60.3,53.4,29.74,SW,233,0.0,0.0,78,0.00,,,0.00,Wunderground v.1.15,2013-08-23 11:45:00,
2013-08-23 04:55:00,59.7,53.5,29.74,SW,233,0.0,0.0,80,0.00,,,0.00,Wunderground v.1.15,2013-08-23 11:55:00,
2013-08-23 05:00:00,59.3,53.1,29.74,SW,233,0.0,0.0,80,0.00,,,0.00,Wunderground v.1.15,2013-08-23 12:00:00,
2013-08-23 05:05:00,59.0,53.2,29.74,SW,233,0.0,0.0,81,0.00,,,0.00,Wunderground v.1.15,2013-08-23 12:05:00,
2013-08-23 05:10:00,58.8,53.3,29.74,SW,233,0.0,0.0,82,0.00,,,0.00,Wunderground v.1.15,2013-08-23 12:10:00,
2013-08-23 05:15:00,58.6,53.1,29.74,SW,233,0.0,0.0,82,0.00,,,0.00,Wunderground v.1.15,2013-08-23 12:15:00,
2013-08-23 05:20:00,58.4,53.3,29.74,SW,233,0.0,0.0,83,0.00,,,0.00,Wunderground v.1.15,2013-08-23 12:20:00,
2013-08-23 05:25:00,58.4,53.3,29.74,SW,233,0.0,0.0,83,0.00,,,0.00,Wunderground v.1.15,2013-08-23 12:25:00,
2013-08-23 05:30:00,58.5,53.0,29.74,SW,233,0.0,0.0,82,0.00,,,0.00,Wunderground v.1.15,2013-08-23 12:30:00,
2013-08-23 05:35:00,58.7,53.5,29.74,SW,233,0.0,0.0,83,0.00,,,0.00,Wunderground v.1.15,2013-08-23 12:35:00,
2013-08-23 05:40:00,58.7,53.2,29.74,SW,233,0.0,0.0,82,0.00,,,0.00,Wunderground v.1.15,2013-08-23 12:40:00,
2013-08-23 05:45:00,58.7,52.9,29.74,SE,137,0.0,0.0,81,0.00,,,0.00,Wunderground v.1.15,2013-08-23 12:45:00,
2013-08-23 05:50:00,58.6,53.1,29.74,SE,137,0.0,0.0,82,0.00,,,0.00,Wunderground v.1.15,2013-08-23 12:50:00,
2013-08-23 05:55:00,58.4,52.9,29.74,SE,137,0.0,0.0,82,0.00,,,0.00,Wunderground v.1.15,2013-08-23 12:55:00,
2013-08-23 06:00:00,58.1,52.6,29.74,SE,137,0.0,0.0,82,0.00,,,0.00,Wunderground v.1.15,2013-08-23 13:00:00,
2013-08-23 06:05:00,57.7,52.6,29.74,SE,137,0.0,0.0,83,0.00,,,0.00,Wunderground v.1.15,2013-08-23 13:05:00,
2013-08-23 06:10:00,57.5,52.7,29.74,SE,137,0.0,0.0,84,0.00,,,0.00,Wunderground v.1.15,2013-08-23 13:10:00,
2013-08-23 06:15:00,57.6,52.8,29.74,SE,137,0.0,0.0,84,0.00,,,0.00,Wunderground v.1.15,2013-08-23 13:15:00,
2013-08-23 06:20:00,57.6,52.8,29.74,SE,137,0.0,0.0,84,0.00,,,0.00,Wunderground v.1.15,2013-08-23 13:20:00,
2013-08-23 06:25:00,57.5,52.7,29.74,SE,136,0.0,0.0,84,0.00,,,0.00,Wunderground v.1.15,2013-08-23 13:25:00,
2013-08-23 06:30:00,57.4,52.6,29.74,SE,136,0.0,0.0,84,0.00,,,0.00,Wunderground v.1.15,2013-08-23 13:30:00,
2013-08-23 06:35:00,57.5,53.0,29.74,SE,137,0.0,0.0,85,0.00,,,0.00,Wunderground v.1.15,2013-08-23 13:35:00,
2013-08-23 06:40:00,57.5,53.0,29.74,SE,136,0.0,0.0,85,0.00,,,0.00,Wunderground v.1.15,2013-08-23 13:40:00,
2013-08-23 06:45:00,57.6,53.4,29.74,SE,137,0.0,0.0,86,0.00,,,0.00,Wunderground v.1.15,2013-08-23 13:45:00,
2013-08-23 06:50:00,58.0,53.8,29.74,SE,136,0.0,0.0,86,0.00,,,0.00,Wunderground v.1.15,2013-08-23 13:50:00,
2013-08-23 06:55:00,58.7,54.2,29.75,SE,137,0.0,0.0,85,0.00,,,0.00,Wunderground v.1.15,2013-08-23 13:55:00,
2013-08-23 07:00:00,59.4,54.2,29.75,SE,137,0.0,0.0,83,0.00,,,0.00,Wunderground v.1.15,2013-08-23 14:00:00,
2013-08-23 07:05:00,60.1,54.9,29.75,SE,136,0.0,0.0,83,0.00,,,0.00,Wunderground v.1.15,2013-08-23 14:05:00,
2013-08-23 07:10:00,61.2,55.3,29.75,SE,137,0.0,0.0,81,0.00,,,0.00,Wunderground v.1.15,2013-08-23 14:10:00,
2013-08-23 07:15:00,62.7,55.7,29.75,SE,137,0.0,0.0,78,0.00,,,0.00,Wunderground v.1.15,2013-08-23 14:15:00,
2013-08-23 07:20:00,63.8,56.4,29.75,SE,137,0.0,0.0,77,0.00,,,0.00,Wunderground v.1.15,2013-08-23 14:20:00,
2013-08-23 07:25:00,63.9,56.2,29.75,SE,136,0.0,0.0,76,0.00,,,0.00,Wunderground v.1.15,2013-08-23 14:25:00,
2013-08-23 07:30:00,63.7,56.4,29.75,SE,137,0.0,0.0,77,0.00,,,0.00,Wunderground v.1.15,2013-08-23 14:30:00,
2013-08-23 07:35:00,63.2,56.2,29.75,South,169,0.0,0.0,78,0.00,,,0.00,Wunderground v.1.15,2013-08-23 14:35:00,
2013-08-23 07:40:00,62.9,56.6,29.75,South,169,0.0,0.0,80,0.00,,,0.00,Wunderground v.1.15,2013-08-23 14:40:00,
2013-08-23 07:45:00,63.0,56.7,29.75,South,169,0.0,0.0,80,0.00,,,0.00,Wunderground v.1.15,2013-08-23 14:45:00,
2013-08-23 07:50:00,63.5,56.9,29.75,South,169,0.0,0.0,79,0.00,,,0.00,Wunderground v.1.15,2013-08-23 14:50:00,
2013-08-23 07:55:00,64.0,57.0,29.75,South,169,0.0,0.0,78,0.00,,,0.00,Wunderground v.1.15,2013-08-23 14:55:00,
2013-08-23 08:00:00,64.5,57.1,29.75,South,169,0.0,0.0,77,0.00,,,0.00,Wunderground v.1.15,2013-08-23 15:00:00,
2013-08-23 08:05:00,64.7,57.0,29.75,South,169,0.0,0.0,76,0.00,,,0.00,Wunderground v.1.15,2013-08-23 15:05:00,
2013-08-23 08:10:00,65.2,57.1,29.75,South,169,0.0,0.0,75,0.00,,,0.00,Wunderground v.1.15,2013-08-23 15:10:00,
2013-08-23 08:15:00,65.8,57.3,29.75,South,190,0.0,0.0,74,0.00,,,0.00,Wunderground v.1.15,2013-08-23 15:15:00,
2013-08-23 08:20:00,66.0,58.2,29.74,South,190,0.0,0.0,76,0.00,,,0.00,Wunderground v.1.15,2013-08-23 15:20:00,
2013-08-23 08:25:00,66.1,57.9,29.75,South,191,0.0,0.0,75,0.00,,,0.00,Wunderground v.1.15,2013-08-23 15:25:00,
2013-08-23 08:30:00,66.1,58.3,29.74,South,190,0.0,0.0,76,0.00,,,0.00,Wunderground v.1.15,2013-08-23 15:30:00,
2013-08-23 08:35:00,67.0,58.1,29.74,South,190,0.0,0.0,73,0.00,,,0.00,Wunderground v.1.15,2013-08-23 15:35:00,
2013-08-23 08:40:00,67.9,57.8,29.74,South,187,0.0,0.0,70,0.00,,,0.00,Wunderground v.1.15,2013-08-23 15:40:00,
2013-08-23 08:45:00,68.7,57.3,29.74,SE,135,0.0,0.0,67,0.00,,,0.00,Wunderground v.1.15,2013-08-23 15:45:00,
2013-08-23 08:50:00,69.2,57.4,29.74,SE,135,0.0,0.0,66,0.00,,,0.00,Wunderground v.1.15,2013-08-23 15:50:00,
2013-08-23 08:55:00,69.6,56.4,29.74,SE,136,0.0,0.0,63,0.00,,,0.00,Wunderground v.1.15,2013-08-23 15:55:00,
2013-08-23 09:00:00,69.9,57.6,29.74,SSW,205,0.0,0.0,65,0.00,,,0.00,Wunderground v.1.15,2013-08-23 16:00:00,
2013-08-23 09:05:00,69.9,57.2,29.74,South,174,0.0,0.0,64,0.00,,,0.00,Wunderground v.1.15,2013-08-23 16:05:00,
2013-08-23 09:10:00,70.3,57.1,29.74,SSE,167,0.0,0.0,63,0.00,,,0.00,Wunderground v.1.15,2013-08-23 16:10:00,
2013-08-23 09:15:00,70.9,56.8,29.74,SSW,200,0.0,0.0,61,0.00,,,0.00,Wunderground v.1.15,2013-08-23 16:15:00,
2013-08-23 09:20:00,71.5,56.9,29.74,SSW,200,0.0,0.0,60,0.00,,,0.00,Wunderground v.1.15,2013-08-23 16:20:00,
2013-08-23 09:25:00,71.9,57.3,29.74,SSE,168,0.0,0.0,60,0.00,,,0.00,Wunderground v.1.15,2013-08-23 16:25:00,
2013-08-23 09:30:00,72.0,56.4,29.74,SSE,167,0.0,0.0,58,0.00,,,0.00,Wunderground v.1.15,2013-08-23 16:30:00,
2013-08-23 09:35:00,72.0,56.4,29.74,SSE,167,0.0,0.0,58,0.00,,,0.00,Wunderground v.1.15,2013-08-23 16:35:00,
2013-08-23 09:40:00,72.2,56.6,29.74,SSE,157,0.0,0.0,58,0.00,,,0.00,Wunderground v.1.15,2013-08-23 16:40:00,
2013-08-23 09:45:00,72.4,58.2,29.74,SSE,165,0.0,0.0,61,0.00,,,0.00,Wunderground v.1.15,2013-08-23 16:45:00,
2013-08-23 09:50:00,73.2,57.5,29.73,SSE,167,0.0,0.0,58,0.00,,,0.00,Wunderground v.1.15,2013-08-23 16:50:00,
2013-08-23 09:55:00,73.8,56.6,29.74,SSE,165,0.0,0.0,55,0.00,,,0.00,Wunderground v.1.15,2013-08-23 16:55:00,
2013-08-23 10:00:00,74.0,56.3,29.74,SE,142,0.0,0.0,54,0.00,,,0.00,Wunderground v.1.15,2013-08-23 17:00:00,
2013-08-23 10:05:00,74.5,55.7,29.74,SSW,207,0.0,0.0,52,0.00,,,0.00,Wunderground v.1.15,2013-08-23 17:05:00,
2013-08-23 10:10:00,74.5,56.2,29.74,WSW,242,0.0,0.0,53,0.00,,,0.00,Wunderground v.1.15,2013-08-23 17:10:00,
2013-08-23 10:15:00,73.9,56.7,29.74,NNE,15,0.0,0.0,55,0.00,,,0.00,Wunderground v.1.15,2013-08-23 17:15:00,
2013-08-23 10:20:00,74.1,56.4,29.74,SSW,210,0.0,0.0,54,0.00,,,0.00,Wunderground v.1.15,2013-08-23 17:20:00,
2013-08-23 10:25:00,74.0,56.8,29.74,WNW,287,0.0,0.0,55,0.00,,,0.00,Wunderground v.1.15,2013-08-23 17:25:00,
2013-08-23 10:30:00,73.9,57.7,29.74,WSW,249,0.0,0.0,57,0.00,,,0.00,Wunderground v.1.15,2013-08-23 17:30:00,
2013-08-23 10:35:00,74.1,57.4,29.74,SSW,208,0.0,1.0,56,0.00,,,0.00,Wunderground v.1.15,2013-08-23 17:35:00,
2013-08-23 10:45:00,74.2,58.0,29.73,SW,232,0.0,0.0,57,0.00,,,0.00,Wunderground v.1.15,2013-08-23 17:45:00,
2013-08-23 10:50:00,74.6,56.3,29.73,South,183,0.0,0.0,53,0.00,,,0.00,Wunderground v.1.15,2013-08-23 17:50:00,
2013-08-23 10:55:00,74.8,56.5,29.73,South,176,0.0,0.0,53,0.00,,,0.00,Wunderground v.1.15,2013-08-23 17:55:00,
2013-08-23 11:00:00,74.4,56.7,29.73,West,274,0.0,0.0,54,0.00,,,0.00,Wunderground v.1.15,2013-08-23 18:00:00,
2013-08-23 11:05:00,74.0,56.3,29.73,SW,217,0.0,0.0,54,0.00,,,0.00,Wunderground v.1.15,2013-08-23 18:05:00,
2013-08-23 11:10:00,73.7,59.9,29.73,WNW,284,0.0,0.0,62,0.00,,,0.00,Wunderground v.1.15,2013-08-23 18:10:00,
2013-08-23 11:15:00,73.7,56.5,29.73,West,278,0.0,0.0,55,0.00,,,0.00,Wunderground v.1.15,2013-08-23 18:15:00,
2013-08-23 11:20:00,74.3,55.5,29.72,NNW,338,0.0,0.0,52,0.00,,,0.00,Wunderground v.1.15,2013-08-23 18:20:00,
2013-08-23 11:25:00,75.0,55.1,29.72,North,358,1.0,2.0,50,0.00,,,0.00,Wunderground v.1.15,2013-08-23 18:25:00,
2013-08-23 11:30:00,75.8,55.8,29.72,West,276,1.0,1.0,50,0.00,,,0.00,Wunderground v.1.15,2013-08-23 18:30:00,
2013-08-23 11:35:00,76.2,55.1,29.72,South,174,2.0,2.0,48,0.00,,,0.00,Wunderground v.1.15,2013-08-23 18:35:00,
2013-08-23 11:40:00,76.5,54.8,29.72,SE,127,2.0,2.0,47,0.00,,,0.00,Wunderground v.1.15,2013-08-23 18:40:00,
2013-08-23 11:45:00,76.7,54.4,29.72,NNW,348,1.0,2.0,46,0.00,,,0.00,Wunderground v.1.15,2013-08-23 18:45:00,
2013-08-23 11:50:00,76.8,53.8,29.72,NE,49,1.0,4.0,45,0.00,,,0.00,Wunderground v.1.15,2013-08-23 18:50:00,
2013-08-23 11:55:00,76.2,53.9,29.72,West,275,1.0,4.0,46,0.00,,,0.00,Wunderground v.1.15,2013-08-23 18:55:00,
2013-08-23 12:00:00,76.7,55.0,29.72,SSE,156,1.0,1.0,47,0.00,,,0.00,Wunderground v.1.15,2013-08-23 19:00:00,
2013-08-23 12:05:00,77.5,55.7,29.71,SSE,167,2.0,2.0,47,0.00,,,0.00,Wunderground v.1.15,2013-08-23 19:05:00,
2013-08-23 12:10:00,77.8,54.8,29.71,SSE,150,2.0,4.0,45,0.00,,,0.00,Wunderground v.1.15,2013-08-23 19:10:00,
2013-08-23 12:15:00,77.9,55.5,29.71,ENE,65,1.0,4.0,46,0.00,,,0.00,Wunderground v.1.15,2013-08-23 19:15:00,
2013-08-23 12:20:00,77.8,56.0,29.71,SSE,166,1.0,1.0,47,0.00,,,0.00,Wunderground v.1.15,2013-08-23 19:20:00,
2013-08-23 12:25:00,78.1,55.6,29.71,SE,124,0.0,1.0,46,0.00,,,0.00,Wunderground v.1.15,2013-08-23 19:25:00,
2013-08-23 12:30:00,78.2,55.1,29.71,East,89,0.0,1.0,45,0.00,,,0.00,Wunderground v.1.15,2013-08-23 19:30:00,
2013-08-23 12:35:00,78.3,55.8,29.70,NNE,15,1.0,1.0,46,0.00,,,0.00,Wunderground v.1.15,2013-08-23 19:35:00,
2013-08-23 12:40:00,78.0,54.9,29.70,ENE,70,1.0,1.0,45,0.00,,,0.00,Wunderground v.1.15,2013-08-23 19:40:00,
2013-08-23 12:45:00,77.8,54.8,29.70,WSW,252,1.0,1.0,45,0.00,,,0.00,Wunderground v.1.15,2013-08-23 19:45:00,
2013-08-23 12:50:00,77.6,54.6,29.70,NNE,27,1.0,1.0,45,0.00,,,0.00,Wunderground v.1.15,2013-08-23 19:50:00,
2013-08-23 13:00:00,77.9,54.2,29.70,ENE,57,0.0,0.0,44,0.00,,,0.00,Wunderground v.1.15,2013-08-23 20:00:00,
2013-08-23 13:05:00,77.9,54.8,29.70,SSW,211,0.0,2.0,45,0.00,,,0.00,Wunderground v.1.15,2013-08-23 20:05:00,
2013-08-23 13:10:00,78.0,53.7,29.70,North,350,1.0,1.0,43,0.00,,,0.00,Wunderground v.1.15,2013-08-23 20:10:00,
2013-08-23 13:15:00,77.5,55.1,29.70,SSE,167,1.0,1.0,46,0.00,,,0.00,Wunderground v.1.15,2013-08-23 20:15:00,
2013-08-23 13:20:00,77.5,56.3,29.70,NE,34,1.0,1.0,48,0.00,,,0.00,Wunderground v.1.15,2013-08-23 20:20:00,
2013-08-23 13:25:00,77.8,56.0,29.70,West,271,1.0,1.0,47,0.00,,,0.00,Wunderground v.1.15,2013-08-23 20:25:00,
2013-08-23 13:35:00,78.8,55.7,29.69,SW,214,1.0,1.0,45,0.00,,,0.00,Wunderground v.1.15,2013-08-23 20:35:00,
2013-08-23 13:40:00,79.6,55.1,29.69,WSW,248,2.0,4.0,43,0.00,,,0.00,Wunderground v.1.15,2013-08-23 20:40:00,
2013-08-23 13:45:00,79.8,55.9,29.69,NNW,348,2.0,4.0,44,0.00,,,0.00,Wunderground v.1.15,2013-08-23 20:45:00,
2013-08-23 13:50:00,80.6,55.4,29.69,SSW,208,2.0,2.0,42,0.00,,,0.00,Wunderground v.1.15,2013-08-23 20:50:00,
2013-08-23 13:55:00,80.1,55.6,29.69,SE,146,1.0,2.0,43,0.00,,,0.00,Wunderground v.1.15,2013-08-23 20:55:00,
2013-08-23 14:00:00,80.1,56.2,29.69,SSE,165,1.0,4.0,44,0.00,,,0.00,Wunderground v.1.15,2013-08-23 21:00:00,
2013-08-23 14:05:00,80.8,56.9,29.69,South,176,1.0,4.0,44,0.00,,,0.00,Wunderground v.1.15,2013-08-23 21:05:00,
2013-08-23 14:15:00,81.0,55.1,29.68,WNW,283,2.0,2.0,41,0.00,,,0.00,Wunderground v.1.15,2013-08-23 21:15:00,
2013-08-23 14:20:00,80.4,55.9,29.68,NNE,13,2.0,3.0,43,0.00,,,0.00,Wunderground v.1.15,2013-08-23 21:20:00,
2013-08-23 14:25:00,79.8,55.9,29.68,South,173,1.0,3.0,44,0.00,,,0.00,Wunderground v.1.15,2013-08-23 21:25:00,
2013-08-23 14:30:00,79.5,55.0,29.68,SW,236,1.0,2.0,43,0.00,,,0.00,Wunderground v.1.15,2013-08-23 21:30:00,
2013-08-23 14:35:00,79.3,54.9,29.68,SSE,152,1.0,2.0,43,0.00,,,0.00,Wunderground v.1.15,2013-08-23 21:35:00,
2013-08-23 14:40:00,79.8,55.3,29.68,East,82,0.0,0.0,43,0.00,,,0.00,Wunderground v.1.15,2013-08-23 21:40:00,
2013-08-23 14:45:00,80.4,55.2,29.68,SSE,157,1.0,1.0,42,0.00,,,0.00,Wunderground v.1.15,2013-08-23 21:45:00,
2013-08-23 14:50:00,80.7,54.8,29.67,ENE,59,1.0,1.0,41,0.00,,,0.00,Wunderground v.1.15,2013-08-23 21:50:00,
2013-08-23 14:55:00,79.5,55.0,29.68,East,86,1.0,1.0,43,0.00,,,0.00,Wunderground v.1.15,2013-08-23 21:55:00,
2013-08-23 15:00:00,78.8,54.4,29.67,East,81,1.0,1.0,43,0.00,,,0.00,Wunderground v.1.15,2013-08-23 22:00:00,
2013-08-23 15:05:00,78.0,57.3,29.68,West,270,0.0,1.0,49,0.00,,,0.00,Wunderground v.1.15,2013-08-23 22:05:00,
2013-08-23 15:10:00,77.4,56.7,29.67,West,270,0.0,0.0,49,0.00,,,0.00,Wunderground v.1.15,2013-08-23 22:10:00,
2013-08-23 15:15:00,77.5,55.1,29.67,NNE,25,0.0,0.0,46,0.00,,,0.00,Wunderground v.1.15,2013-08-23 22:15:00,
2013-08-23 15:20:00,77.5,57.4,29.67,ENE,68,0.0,0.0,50,0.00,,,0.00,Wunderground v.1.15,2013-08-23 22:20:00,
2013-08-23 15:25:00,77.2,58.2,29.67,SW,232,0.0,1.0,52,0.00,,,0.00,Wunderground v.1.15,2013-08-23 22:25:00,
2013-08-23 15:30:00,77.0,56.9,29.68,SSE,166,0.0,1.0,50,0.00,,,0.00,Wunderground v.1.15,2013-08-23 22:30:00,
2013-08-23 15:35:00,76.9,56.3,29.68,NNW,332,0.0,1.0,49,0.00,,,0.00,Wunderground v.1.15,2013-08-23 22:35:00,
2013-08-23 15:40:00,76.7,56.1,29.67,ESE,110,1.0,1.0,49,0.00,,,0.00,Wunderground v.1.15,2013-08-23 22:40:00,
2013-08-23 15:45:00,76.6,57.1,29.68,SE,126,0.0,2.0,51,0.00,,,0.00,Wunderground v.1.15,2013-08-23 22:45:00,
2013-08-23 15:50:00,76.3,56.8,29.68,North,6,0.0,1.0,51,0.00,,,0.00,Wunderground v.1.15,2013-08-23 22:50:00,
2013-08-23 15:55:00,76.1,58.8,29.68,West,264,1.0,1.0,55,0.00,,,0.00,Wunderground v.1.15,2013-08-23 22:55:00,
2013-08-23 16:00:00,76.0,57.6,29.68,NW,321,0.0,0.0,53,0.00,,,0.00,Wunderground v.1.15,2013-08-23 23:00:00,
2013-08-23 16:05:00,76.0,57.1,29.68,WNW,287,0.0,0.0,52,0.00,,,0.00,Wunderground v.1.15,2013-08-23 23:05:00,
2013-08-23 16:10:00,75.9,57.5,29.68,SW,236,0.0,0.0,53,0.00,,,0.00,Wunderground v.1.15,2013-08-23 23:10:00,
2013-08-23 16:15:00,75.7,58.4,29.69,West,276,0.0,3.0,55,0.00,,,0.00,Wunderground v.1.15,2013-08-23 23:15:00,
2013-08-23 16:20:00,75.3,58.0,29.69,WSW,238,1.0,3.0,55,0.00,,,0.00,Wunderground v.1.15,2013-08-23 23:20:00,
2013-08-23 16:25:00,74.9,58.1,29.68,East,101,1.0,3.0,56,0.00,,,0.00,Wunderground v.1.15,2013-08-23 23:25:00,
2013-08-23 16:30:00,74.8,56.0,29.69,East,86,1.0,1.0,52,0.00,,,0.00,Wunderground v.1.15,2013-08-23 23:30:00,
2013-08-23 16:35:00,74.5,56.2,29.68,ENE,60,1.0,1.0,53,0.00,,,0.00,Wunderground v.1.15,2013-08-23 23:35:00,
2013-08-23 16:45:00,75.7,56.8,29.68,NW,321,0.0,3.0,52,0.00,,,0.00,Wunderground v.1.15,2013-08-23 23:45:00,
2013-08-23 16:50:00,76.1,56.7,29.68,SW,221,0.0,1.0,51,0.00,,,0.00,Wunderground v.1.15,2013-08-23 23:50:00,
2013-08-23 16:55:00,76.6,56.0,29.68,North,11,1.0,1.0,49,0.00,,,0.00,Wunderground v.1.15,2013-08-23 23:55:00,
2013-08-23 17:00:00,77.0,55.8,29.68,WNW,290,1.0,3.0,48,0.00,,,0.00,Wunderground v.1.15,2013-08-24 00:00:00,
2013-08-23 17:05:00,76.9,54.5,29.67,NE,40,1.0,3.0,46,0.00,,,0.00,Wunderground v.1.15,2013-08-24 00:05:00,
2013-08-23 17:10:00,77.2,56.0,29.67,ESE,103,1.0,1.0,48,0.00,,,0.00,Wunderground v.1.15,2013-08-24 00:10:00,
2013-08-23 17:15:00,77.3,57.2,29.67,SW,218,0.0,1.0,50,0.00,,,0.00,Wunderground v.1.15,2013-08-24 00:15:00,
2013-08-23 17:20:00,77.5,55.7,29.67,WNW,285,0.0,1.0,47,0.00,,,0.00,Wunderground v.1.15,2013-08-24 00:20:00,
2013-08-23 17:25:00,77.3,55.5,29.67,WNW,285,0.0,1.0,47,0.00,,,0.00,Wunderground v.1.15,2013-08-24 00:25:00,
2013-08-23 17:30:00,76.9,55.1,29.67,WSW,245,0.0,0.0,47,0.00,,,0.00,Wunderground v.1.15,2013-08-24 00:30:00,
2013-08-23 17:35:00,76.8,57.8,29.67,West,273,0.0,0.0,52,0.00,,,0.00,Wunderground v.1.15,2013-08-24 00:35:00,
2013-08-23 17:40:00,75.7,57.9,29.67,West,273,0.0,0.0,54,0.00,,,0.00,Wunderground v.1.15,2013-08-24 00:40:00,
2013-08-23 17:45:00,74.7,59.4,29.67,SW,214,0.0,0.0,59,0.00,,,0.00,Wunderground v.1.15,2013-08-24 00:45:00,
2013-08-23 17:50:00,74.0,59.2,29.67,WSW,238,0.0,0.0,60,0.00,,,0.00,Wunderground v.1.15,2013-08-24 00:50:00,
2013-08-23 17:55:00,73.2,59.4,29.67,East,99,0.0,0.0,62,0.00,,,0.00,Wunderground v.1.15,2013-08-24 00:55:00,
2013-08-23 18:15:00,70.9,59.8,29.67,SE,143,0.0,0.0,68,0.00,,,0.00,Wunderground v.1.15,2013-08-24 01:15:00,
2013-08-23 18:20:00,70.3,60.1,29.67,SSE,150,0.0,0.0,70,0.00,,,0.00,Wunderground v.1.15,2013-08-24 01:20:00,
2013-08-23 18:25:00,69.7,60.3,29.67,SSE,150,0.0,0.0,72,0.00,,,0.00,Wunderground v.1.15,2013-08-24 01:25:00,
2013-08-23 18:30:00,69.1,59.3,29.67,North,349,0.0,0.0,71,0.00,,,0.00,Wunderground v.1.15,2013-08-24 01:30:00,
2013-08-23 18:35:00,68.6,59.6,29.67,NNW,348,0.0,0.0,73,0.00,,,0.00,Wunderground v.1.15,2013-08-24 01:35:00,
2013-08-23 18:40:00,68.2,59.6,29.67,NNW,348,0.0,0.0,74,0.00,,,0.00,Wunderground v.1.15,2013-08-24 01:40:00,
2013-08-23 18:45:00,67.7,59.9,29.67,NNW,348,0.0,0.0,76,0.00,,,0.00,Wunderground v.1.15,2013-08-24 01:45:00,
2013-08-23 18:50:00,66.9,59.8,29.67,North,349,0.0,0.0,78,0.00,,,0.00,Wunderground v.1.15,2013-08-24 01:50:00,
2013-08-23 18:55:00,66.4,59.7,29.67,North,349,0.0,0.0,79,0.00,,,0.00,Wunderground v.1.15,2013-08-24 01:55:00,
2013-08-23 19:00:00,66.0,59.7,29.67,NNW,348,0.0,0.0,80,0.00,,,0.00,Wunderground v.1.15,2013-08-24 02:00:00,
2013-08-23 19:05:00,65.5,59.5,29.67,North,349,0.0,0.0,81,0.00,,,0.00,Wunderground v.1.15,2013-08-24 02:05:00,
2013-08-23 19:15:00,64.9,59.6,29.67,NNW,348,0.0,0.0,83,0.00,,,0.00,Wunderground v.1.15,2013-08-24 02:15:00,
2013-08-23 19:20:00,64.7,59.4,29.67,North,349,0.0,0.0,83,0.00,,,0.00,Wunderground v.1.15,2013-08-24 02:20:00,
2013-08-23 19:25:00,64.5,59.6,29.68,NNW,348,0.0,0.0,84,0.00,,,0.00,Wunderground v.1.15,2013-08-24 02:25:00,
2013-08-23 19:30:00,64.5,59.6,29.68,NNW,348,0.0,0.0,84,0.00,,,0.00,Wunderground v.1.15,2013-08-24 02:30:00,
2013-08-23 19:35:00,64.4,59.8,29.68,NNW,348,0.0,0.0,85,0.00,,,0.00,Wunderground v.1.15,2013-08-24 02:35:00,
2013-08-23 19:40:00,64.3,59.7,29.68,North,349,0.0,0.0,85,0.00,,,0.00,Wunderground v.1.15,2013-08-24 02:40:00,
2013-08-23 19:45:00,64.3,59.7,29.68,North,349,0.0,0.0,85,0.00,,,0.00,Wunderground v.1.15,2013-08-24 02:45:00,
2013-08-23 19:50:00,64.3,59.7,29.68,NNW,348,0.0,0.0,85,0.00,,,0.00,Wunderground v.1.15,2013-08-24 02:50:00,
2013-08-23 19:55:00,64.2,59.6,29.69,NNW,348,0.0,0.0,85,0.00,,,0.00,Wunderground v.1.15,2013-08-24 02:55:00,
2013-08-23 20:05:00,63.7,59.4,29.69,North,349,0.0,0.0,86,0.00,,,0.00,Wunderground v.1.15,2013-08-24 03:05:00,
2013-08-23 20:15:00,63.0,59.1,29.69,North,349,0.0,0.0,87,0.00,,,0.00,Wunderground v.1.15,2013-08-24 03:15:00,
2013-08-23 20:20:00,62.8,58.9,29.70,North,349,0.0,0.0,87,0.00,,,0.00,Wunderground v.1.15,2013-08-24 03:20:00,
2013-08-23 20:25:00,63.2,59.3,29.70,North,349,0.0,0.0,87,0.00,,,0.00,Wunderground v.1.15,2013-08-24 03:25:00,
2013-08-23 20:30:00,63.2,59.6,29.70,North,349,0.0,0.0,88,0.00,,,0.00,Wunderground v.1.15,2013-08-24 03:30:00,
2013-08-23 20:35:00,62.9,59.6,29.70,NNW,348,0.0,0.0,89,0.00,,,0.00,Wunderground v.1.15,2013-08-24 03:35:00,
2013-08-23 20:40:00,62.8,59.8,29.70,NNW,348,0.0,0.0,90,0.00,,,0.00,Wunderground v.1.15,2013-08-24 03:40:00,
2013-08-23 20:45:00,62.7,59.7,29.70,NNW,348,0.0,0.0,90,0.00,,,0.00,Wunderground v.1.15,2013-08-24 03:45:00,
2013-08-23 20:50:00,62.5,59.5,29.70,North,349,0.0,0.0,90,0.00,,,0.00,Wunderground v.1.15,2013-08-24 03:50:00,
2013-08-23 20:55:00,62.4,59.7,29.71,North,349,0.0,0.0,91,0.00,,,0.00,Wunderground v.1.15,2013-08-24 03:55:00,
2013-08-23 21:00:00,62.2,59.5,29.71,North,349,0.0,0.0,91,0.00,,,0.00,Wunderground v.1.15,2013-08-24 04:00:00,
2013-08-23 21:05:00,62.1,59.7,29.71,NNW,348,0.0,0.0,92,0.00,,,0.00,Wunderground v.1.15,2013-08-24 04:05:00,
2013-08-23 21:15:00,61.7,59.0,29.71,North,349,0.0,0.0,91,0.00,,,0.00,Wunderground v.1.15,2013-08-24 04:15:00,
2013-08-23 21:20:00,61.4,58.7,29.71,NNW,348,0.0,0.0,91,0.00,,,0.00,Wunderground v.1.15,2013-08-24 04:20:00,
2013-08-23 21:25:00,61.0,58.7,29.71,North,349,0.0,0.0,92,0.00,,,0.00,Wunderground v.1.15,2013-08-24 04:25:00,
2013-08-23 21:30:00,60.6,58.3,29.71,NNW,348,0.0,0.0,92,0.00,,,0.00,Wunderground v.1.15,2013-08-24 04:30:00,
2013-08-23 21:35:00,60.1,57.8,29.71,North,349,0.0,0.0,92,0.00,,,0.00,Wunderground v.1.15,2013-08-24 04:35:00,
2013-08-23 21:40:00,59.6,57.3,29.71,North,349,0.0,0.0,92,0.00,,,0.00,Wunderground v.1.15,2013-08-24 04:40:00,
2013-08-23 21:45:00,59.1,56.8,29.71,North,349,0.0,0.0,92,0.00,,,0.00,Wunderground v.1.15,2013-08-24 04:45:00,
2013-08-23 21:50:00,58.8,56.8,29.71,NNW,348,0.0,0.0,93,0.00,,,0.00,Wunderground v.1.15,2013-08-24 04:50:00,
2013-08-23 21:55:00,58.3,56.0,29.71,NNW,348,0.0,0.0,92,0.00,,,0.00,Wunderground v.1.15,2013-08-24 04:55:00,
2013-08-23 22:00:00,57.8,55.8,29.71,North,349,0.0,0.0,93,0.00,,,0.00,Wunderground v.1.15,2013-08-24 05:00:00,
2013-08-23 22:05:00,57.5,55.5,29.71,NNW,348,0.0,0.0,93,0.00,,,0.00,Wunderground v.1.15,2013-08-24 05:05:00,
2013-08-23 22:10:00,57.2,55.2,29.71,North,349,0.0,0.0,93,0.00,,,0.00,Wunderground v.1.15,2013-08-24 05:10:00,
2013-08-23 22:15:00,57.0,55.3,29.71,NNW,348,0.0,0.0,94,0.00,,,0.00,Wunderground v.1.15,2013-08-24 05:15:00,
2013-08-23 22:20:00,56.7,55.0,29.71,NNW,348,0.0,0.0,94,0.00,,,0.00,Wunderground v.1.15,2013-08-24 05:20:00,
2013-08-23 22:25:00,56.5,54.8,29.71,North,349,0.0,0.0,94,0.00,,,0.00,Wunderground v.1.15,2013-08-24 05:25:00,
2013-08-23 22:30:00,56.1,54.4,29.71,North,349,0.0,0.0,94,0.00,,,0.00,Wunderground v.1.15,2013-08-24 05:30:00,
2013-08-23 22:35:00,55.7,54.0,29.71,NNW,348,0.0,0.0,94,0.00,,,0.00,Wunderground v.1.15,2013-08-24 05:35:00,
2013-08-23 22:40:00,55.3,53.6,29.71,NNW,348,0.0,0.0,94,0.00,,,0.00,Wunderground v.1.15,2013-08-24 05:40:00,
2013-08-23 22:45:00,55.2,53.5,29.71,NNW,348,0.0,0.0,94,0.00,,,0.00,Wunderground v.1.15,2013-08-24 05:45:00,
2013-08-23 22:50:00,55.1,53.7,29.71,North,349,0.0,0.0,95,0.00,,,0.00,Wunderground v.1.15,2013-08-24 05:50:00,
2013-08-23 22:55:00,54.8,53.1,29.71,NNW,348,0.0,0.0,94,0.00,,,0.00,Wunderground v.1.15,2013-08-24 05:55:00,
2013-08-23 23:00:00,54.8,53.4,29.71,NNW,348,0.0,0.0,95,0.00,,,0.00,Wunderground v.1.15,2013-08-24 06:00:00,
2013-08-23 23:05:00,54.5,53.1,29.71,North,349,0.0,0.0,95,0.00,,,0.00,Wunderground v.1.15,2013-08-24 06:05:00,
2013-08-23 23:10:00,54.3,52.9,29.71,North,349,0.0,0.0,95,0.00,,,0.00,Wunderground v.1.15,2013-08-24 06:10:00,
2013-08-23 23:20:00,53.9,52.5,29.72,North,349,0.0,0.0,95,0.00,,,0.00,Wunderground v.1.15,2013-08-24 06:20:00,
2013-08-23 23:25:00,53.7,52.3,29.72,NNW,348,0.0,0.0,95,0.00,,,0.00,Wunderground v.1.15,2013-08-24 06:25:00,
2013-08-23 23:30:00,53.8,52.4,29.72,North,349,0.0,0.0,95,0.00,,,0.00,Wunderground v.1.15,2013-08-24 06:30:00,
2013-08-23 23:35:00,53.7,52.3,29.72,North,349,0.0,0.0,95,0.00,,,0.00,Wunderground v.1.15,2013-08-24 06:35:00,
2013-08-23 23:40:00,53.4,52.0,29.72,North,349,0.0,0.0,95,0.00,,,0.00,Wunderground v.1.15,2013-08-24 06:40:00,
2013-08-23 23:45:00,53.2,51.8,29.72,North,349,0.0,0.0,95,0.00,,,0.00,Wunderground v.1.15,2013-08-24 06:45:00,
2013-08-23 23:50:00,53.1,51.7,29.72,North,349,0.0,0.0,95,0.00,,,0.00,Wunderground v.1.15,2013-08-24 06:50:00,
2013-08-23 23:55:00,53.0,51.6,29.72,North,349,0.0,0.0,95,0.00,,,0.00,Wunderground v.1.15,2013-08-24 06:55:00,